Terminal Aerodrome Forecast
Issued by NWS

Home | Current Version | Previous Version | Text Only | Print | Product List | Glossary On
Versions: 1 2 3 4 5 6 7 8 9 10 11 12 13 14 15 16
000
FTUS46 KSEW 171700 AAA
TAFCLM
TAF AMD
KCLM 171757Z 1718/1818 VRB03KT P6SM VCSH SCT004 SCT050 OVC130
      TEMPO 1718/1720 BKN004 BKN050 OVC130
     FM172000 32008KT P6SM -SHRA SCT004 BKN020 OVC050
      TEMPO 1720/1722 5SM SHRA BKN004 OVC020
     FM172200 28013KT P6SM VCSH SCT028 BKN050
      TEMPO 1722/1724 28013G23KT -SHRA
     FM180000 28017G25KT P6SM VCSH SCT035 SCT050
     FM180900 26013KT P6SM SCT050=

USA.gov is the U.S. government's official web portal to all federal, state and local government web resources and services.